sensor_id;sensor_type;location;lat;lon;timestamp;pressure;altitude;pressure_sealevel;temperature;humidity
62072;BME280;48031;48.542;13.232;2023-02-04T00:02:39;97929.81;;;14.99;54.39
62072;BME280;48031;48.542;13.232;2023-02-04T00:06:41;97941.78;;;10.22;62.46
62072;BME280;48031;48.542;13.232;2023-02-04T00:10:43;97940.66;;;9.76;67.22
62072;BME280;48031;48.542;13.232;2023-02-04T00:14:45;97940.25;;;9.49;68.42
62072;BME280;48031;48.542;13.232;2023-02-04T00:18:47;97947.91;;;8.93;66.26
62072;BME280;48031;48.542;13.232;2023-02-04T00:22:48;97953.28;;;8.45;68.50
62072;BME280;48031;48.542;13.232;2023-02-04T00:26:51;97946.44;;;8.42;69.28
62072;BME280;48031;48.542;13.232;2023-02-04T00:30:54;97941.25;;;8.59;68.52
62072;BME280;48031;48.542;13.232;2023-02-04T00:34:56;97947.34;;;8.54;67.96
62072;BME280;48031;48.542;13.232;2023-02-04T00:38:59;97935.28;;;8.57;67.00
62072;BME280;48031;48.542;13.232;2023-02-04T00:43:01;97944.44;;;8.74;66.30
62072;BME280;48031;48.542;13.232;2023-02-04T00:47:04;97954.50;;;8.67;67.19
62072;BME280;48031;48.542;13.232;2023-02-04T00:51:06;97959.75;;;8.80;67.90
62072;BME280;48031;48.542;13.232;2023-02-04T00:55:08;97982.97;;;8.69;66.31
62072;BME280;48031;48.542;13.232;2023-02-04T00:59:11;97969.66;;;8.86;65.67
62072;BME280;48031;48.542;13.232;2023-02-04T01:03:12;97976.56;;;9.00;64.01
62072;BME280;48031;48.542;13.232;2023-02-04T01:07:15;97968.31;;;8.95;64.37
62072;BME280;48031;48.542;13.232;2023-02-04T01:11:17;97963.72;;;9.26;63.43
62072;BME280;48031;48.542;13.232;2023-02-04T01:15:19;97987.78;;;9.34;62.24
62072;BME280;48031;48.542;13.232;2023-02-04T01:19:21;97985.88;;;9.52;61.55
62072;BME280;48031;48.542;13.232;2023-02-04T01:23:22;97990.44;;;9.22;61.78
62072;BME280;48031;48.542;13.232;2023-02-04T01:27:24;97975.69;;;8.88;62.01
62072;BME280;48031;48.542;13.232;2023-02-04T01:31:26;97981.53;;;9.03;62.46
62072;BME280;48031;48.542;13.232;2023-02-04T01:35:28;97972.56;;;9.03;62.24
62072;BME280;48031;48.542;13.232;2023-02-04T01:39:30;97977.63;;;8.99;63.11
62072;BME280;48031;48.542;13.232;2023-02-04T01:43:32;97991.16;;;8.99;62.70
62072;BME280;48031;48.542;13.232;2023-02-04T01:47:34;97984.88;;;9.35;61.30
62072;BME280;48031;48.542;13.232;2023-02-04T01:51:39;97988.34;;;9.24;62.74
62072;BME280;48031;48.542;13.232;2023-02-04T01:55:42;97983.59;;;9.19;62.71
62072;BME280;48031;48.542;13.232;2023-02-04T01:59:45;97985.31;;;9.32;62.42
62072;BME280;48031;48.542;13.232;2023-02-04T02:03:47;97977.69;;;9.11;62.73
62072;BME280;48031;48.542;13.232;2023-02-04T02:07:50;97994.13;;;9.28;62.51
62072;BME280;48031;48.542;13.232;2023-02-04T02:11:53;97998.84;;;8.84;62.37
62072;BME280;48031;48.542;13.232;2023-02-04T02:15:55;98006.75;;;8.86;61.88
62072;BME280;48031;48.542;13.232;2023-02-04T02:19:57;97987.41;;;9.00;61.71
62072;BME280;48031;48.542;13.232;2023-02-04T02:24:31;97989.59;;;9.40;61.28
62072;BME280;48031;48.542;13.232;2023-02-04T02:28:33;97992.47;;;8.97;60.79
62072;BME280;48031;48.542;13.232;2023-02-04T02:32:36;97996.13;;;9.02;61.03
62072;BME280;48031;48.542;13.232;2023-02-04T02:36:38;98021.19;;;8.80;59.22
62072;BME280;48031;48.542;13.232;2023-02-04T02:40:41;97999.34;;;8.93;60.09
62072;BME280;48031;48.542;13.232;2023-02-04T02:44:44;98004.75;;;9.11;58.36
62072;BME280;48031;48.542;13.232;2023-02-04T02:48:47;98041.19;;;8.97;57.32
62072;BME280;48031;48.542;13.232;2023-02-04T02:52:49;98024.69;;;8.98;58.78
62072;BME280;48031;48.542;13.232;2023-02-04T02:56:51;98032.75;;;9.05;56.56
62072;BME280;48031;48.542;13.232;2023-02-04T03:00:56;98071.94;;;9.02;55.01
62072;BME280;48031;48.542;13.232;2023-02-04T03:04:59;98068.19;;;8.85;55.34
62072;BME280;48031;48.542;13.232;2023-02-04T03:09:04;98069.38;;;9.07;55.04
62072;BME280;48031;48.542;13.232;2023-02-04T03:13:06;98070.94;;;9.15;55.07
62072;BME280;48031;48.542;13.232;2023-02-04T03:17:09;98043.00;;;8.85;55.78
62072;BME280;48031;48.542;13.232;2023-02-04T03:21:12;98033.88;;;8.97;56.62
62072;BME280;48031;48.542;13.232;2023-02-04T03:25:14;98059.44;;;9.19;55.24
62072;BME280;48031;48.542;13.232;2023-02-04T03:29:16;98072.81;;;9.14;54.87
62072;BME280;48031;48.542;13.232;2023-02-04T03:33:18;98079.13;;;9.08;54.08
62072;BME280;48031;48.542;13.232;2023-02-04T03:37:20;98087.88;;;8.92;53.89
62072;BME280;48031;48.542;13.232;2023-02-04T03:41:22;98080.81;;;9.09;54.04
62072;BME280;48031;48.542;13.232;2023-02-04T03:45:23;98109.41;;;9.24;53.75
62072;BME280;48031;48.542;13.232;2023-02-04T03:49:28;98105.94;;;9.35;53.88
62072;BME280;48031;48.542;13.232;2023-02-04T03:53:32;98120.81;;;9.26;53.77
62072;BME280;48031;48.542;13.232;2023-02-04T03:57:34;98116.84;;;9.10;54.91
62072;BME280;48031;48.542;13.232;2023-02-04T04:01:36;98118.69;;;8.73;54.86
62072;BME280;48031;48.542;13.232;2023-02-04T04:05:38;98132.59;;;7.89;56.12
62072;BME280;48031;48.542;13.232;2023-02-04T04:09:40;98127.94;;;7.65;56.26
62072;BME280;48031;48.542;13.232;2023-02-04T04:13:42;98153.25;;;8.08;56.91
62072;BME280;48031;48.542;13.232;2023-02-04T04:17:44;98149.47;;;8.16;56.50
62072;BME280;48031;48.542;13.232;2023-02-04T04:21:46;98153.22;;;7.83;58.13
62072;BME280;48031;48.542;13.232;2023-02-04T04:25:48;98145.13;;;8.15;56.84
62072;BME280;48031;48.542;13.232;2023-02-04T04:29:51;98160.19;;;7.98;57.12
62072;BME280;48031;48.542;13.232;2023-02-04T04:33:53;98160.69;;;7.88;58.03
62072;BME280;48031;48.542;13.232;2023-02-04T04:37:55;98151.16;;;7.79;58.53
62072;BME280;48031;48.542;13.232;2023-02-04T04:41:57;98170.03;;;9.59;53.62
62072;BME280;48031;48.542;13.232;2023-02-04T04:45:59;98172.19;;;7.70;58.10
62072;BME280;48031;48.542;13.232;2023-02-04T04:50:02;98179.38;;;7.89;58.72
62072;BME280;48031;48.542;13.232;2023-02-04T04:54:04;98179.25;;;7.71;58.94
62072;BME280;48031;48.542;13.232;2023-02-04T04:58:07;98214.84;;;7.62;59.14
62072;BME280;48031;48.542;13.232;2023-02-04T05:02:09;98205.41;;;7.77;58.48
62072;BME280;48031;48.542;13.232;2023-02-04T05:06:11;98205.63;;;7.76;58.87
62072;BME280;48031;48.542;13.232;2023-02-04T05:10:14;98232.72;;;7.63;59.08
62072;BME280;48031;48.542;13.232;2023-02-04T05:14:16;98234.06;;;8.92;55.58
62072;BME280;48031;48.542;13.232;2023-02-04T05:18:18;98262.25;;;7.58;59.45
62072;BME280;48031;48.542;13.232;2023-02-04T05:22:20;98265.31;;;7.68;59.42
62072;BME280;48031;48.542;13.232;2023-02-04T05:26:22;98288.75;;;7.87;59.34
62072;BME280;48031;48.542;13.232;2023-02-04T05:30:31;98316.47;;;7.36;64.32
62072;BME280;48031;48.542;13.232;2023-02-04T05:34:33;98343.91;;;7.14;65.09
62072;BME280;48031;48.542;13.232;2023-02-04T05:38:36;98362.59;;;7.08;66.32
62072;BME280;48031;48.542;13.232;2023-02-04T05:42:38;98378.78;;;7.41;65.99
62072;BME280;48031;48.542;13.232;2023-02-04T05:46:42;98380.03;;;7.06;67.03
62072;BME280;48031;48.542;13.232;2023-02-04T05:50:44;98375.03;;;6.90;68.24
62072;BME280;48031;48.542;13.232;2023-02-04T05:54:46;98387.25;;;6.86;67.17
62072;BME280;48031;48.542;13.232;2023-02-04T05:58:48;98399.28;;;6.77;67.98
62072;BME280;48031;48.542;13.232;2023-02-04T06:02:51;98417.31;;;6.63;66.69
62072;BME280;48031;48.542;13.232;2023-02-04T06:06:53;98419.66;;;6.38;67.12
62072;BME280;48031;48.542;13.232;2023-02-04T06:10:55;98420.78;;;6.50;67.71
62072;BME280;48031;48.542;13.232;2023-02-04T06:14:57;98441.31;;;6.51;65.91
62072;BME280;48031;48.542;13.232;2023-02-04T06:18:59;98455.50;;;6.73;64.88
62072;BME280;48031;48.542;13.232;2023-02-04T06:23:01;98461.22;;;6.50;66.14
62072;BME280;48031;48.542;13.232;2023-02-04T06:27:03;98480.97;;;6.57;65.40
62072;BME280;48031;48.542;13.232;2023-02-04T06:31:05;98485.94;;;6.60;64.79
62072;BME280;48031;48.542;13.232;2023-02-04T06:35:10;98508.88;;;6.78;63.95
62072;BME280;48031;48.542;13.232;2023-02-04T06:39:13;98517.59;;;6.80;63.91
62072;BME280;48031;48.542;13.232;2023-02-04T06:43:16;98517.59;;;6.86;63.01
62072;BME280;48031;48.542;13.232;2023-02-04T06:47:18;98522.63;;;6.89;63.32
62072;BME280;48031;48.542;13.232;2023-02-04T06:51:20;98525.28;;;6.83;63.49
62072;BME280;48031;48.542;13.232;2023-02-04T06:55:22;98535.06;;;6.84;64.03
62072;BME280;48031;48.542;13.232;2023-02-04T06:59:24;98553.13;;;6.90;64.36
62072;BME280;48031;48.542;13.232;2023-02-04T07:03:30;98567.06;;;6.93;62.94
62072;BME280;48031;48.542;13.232;2023-02-04T07:07:31;98579.34;;;7.02;62.51
62072;BME280;48031;48.542;13.232;2023-02-04T07:11:33;98584.66;;;7.24;61.59
62072;BME280;48031;48.542;13.232;2023-02-04T07:15:35;98583.59;;;7.25;61.45
62072;BME280;48031;48.542;13.232;2023-02-04T07:19:37;98592.72;;;7.17;60.83
62072;BME280;48031;48.542;13.232;2023-02-04T07:23:39;98586.50;;;6.82;60.86
62072;BME280;48031;48.542;13.232;2023-02-04T07:27:41;98594.63;;;6.54;62.13
62072;BME280;48031;48.542;13.232;2023-02-04T07:31:43;98612.97;;;6.65;61.50
62072;BME280;48031;48.542;13.232;2023-02-04T07:35:46;98622.91;;;6.65;61.66
62072;BME280;48031;48.542;13.232;2023-02-04T07:39:48;98628.41;;;6.78;60.74
62072;BME280;48031;48.542;13.232;2023-02-04T07:43:49;98640.00;;;7.06;58.88
62072;BME280;48031;48.542;13.232;2023-02-04T07:47:51;98653.31;;;7.56;57.19
62072;BME280;48031;48.542;13.232;2023-02-04T07:51:53;98665.94;;;7.01;59.04
62072;BME280;48031;48.542;13.232;2023-02-04T07:55:55;98672.56;;;6.71;60.36
62072;BME280;48031;48.542;13.232;2023-02-04T07:59:57;98684.28;;;7.12;59.97
62072;BME280;48031;48.542;13.232;2023-02-04T08:03:59;98696.25;;;6.75;61.19
62072;BME280;48031;48.542;13.232;2023-02-04T08:08:01;98708.66;;;6.69;61.18
62072;BME280;48031;48.542;13.232;2023-02-04T08:12:03;98711.88;;;6.80;60.17
62072;BME280;48031;48.542;13.232;2023-02-04T08:16:05;98712.94;;;7.13;60.97
62072;BME280;48031;48.542;13.232;2023-02-04T08:20:08;98713.28;;;7.03;59.51
62072;BME280;48031;48.542;13.232;2023-02-04T08:24:11;98736.72;;;6.75;59.07
62072;BME280;48031;48.542;13.232;2023-02-04T08:28:13;98728.16;;;6.44;58.93
62072;BME280;48031;48.542;13.232;2023-02-04T08:32:15;98728.69;;;6.82;59.53
62072;BME280;48031;48.542;13.232;2023-02-04T08:36:17;98741.16;;;6.83;57.83
62072;BME280;48031;48.542;13.232;2023-02-04T08:40:18;98739.69;;;8.44;52.50
62072;BME280;48031;48.542;13.232;2023-02-04T08:44:21;98740.97;;;8.88;51.95
62072;BME280;48031;48.542;13.232;2023-02-04T08:48:22;98747.19;;;8.49;53.12
62072;BME280;48031;48.542;13.232;2023-02-04T08:52:24;98748.63;;;9.37;51.05
62072;BME280;48031;48.542;13.232;2023-02-04T08:56:26;98753.06;;;8.85;51.48
62072;BME280;48031;48.542;13.232;2023-02-04T09:00:28;98768.88;;;9.14;50.38
62072;BME280;48031;48.542;13.232;2023-02-04T09:04:31;98774.72;;;8.79;52.36
62072;BME280;48031;48.542;13.232;2023-02-04T09:08:33;98778.91;;;8.94;51.70
62072;BME280;48031;48.542;13.232;2023-02-04T09:12:34;98798.66;;;8.82;50.92
62072;BME280;48031;48.542;13.232;2023-02-04T09:16:36;98804.06;;;8.62;50.84
62072;BME280;48031;48.542;13.232;2023-02-04T09:20:38;98809.09;;;8.85;48.69
62072;BME280;48031;48.542;13.232;2023-02-04T09:24:40;98823.81;;;8.56;51.34
62072;BME280;48031;48.542;13.232;2023-02-04T09:28:42;98839.25;;;8.62;50.70
62072;BME280;48031;48.542;13.232;2023-02-04T09:32:44;98840.53;;;8.79;51.00
62072;BME280;48031;48.542;13.232;2023-02-04T09:36:46;98849.28;;;9.73;48.98
62072;BME280;48031;48.542;13.232;2023-02-04T09:40:52;98873.50;;;9.48;48.76
62072;BME280;48031;48.542;13.232;2023-02-04T09:44:56;98863.00;;;10.18;48.46
62072;BME280;48031;48.542;13.232;2023-02-04T09:48:58;98868.78;;;10.79;45.80
62072;BME280;48031;48.542;13.232;2023-02-04T09:53:02;98871.69;;;10.77;44.73
62072;BME280;48031;48.542;13.232;2023-02-04T09:57:16;98880.09;;;11.07;44.63
62072;BME280;48031;48.542;13.232;2023-02-04T10:01:19;98884.09;;;9.70;47.31
62072;BME280;48031;48.542;13.232;2023-02-04T10:05:32;98883.56;;;11.21;44.54
62072;BME280;48031;48.542;13.232;2023-02-04T10:09:40;98890.00;;;10.57;44.25
62072;BME280;48031;48.542;13.232;2023-02-04T10:13:47;98895.63;;;10.94;43.16
62072;BME280;48031;48.542;13.232;2023-02-04T10:17:55;98912.72;;;11.07;44.10
62072;BME280;48031;48.542;13.232;2023-02-04T10:21:59;98908.38;;;11.31;43.94
62072;BME280;48031;48.542;13.232;2023-02-04T10:26:02;98907.72;;;12.10;42.27
62072;BME280;48031;48.542;13.232;2023-02-04T10:30:04;98915.56;;;11.19;42.75
62072;BME280;48031;48.542;13.232;2023-02-04T10:34:10;98903.38;;;13.12;39.35
62072;BME280;48031;48.542;13.232;2023-02-04T10:38:12;98908.19;;;13.10;37.92
62072;BME280;48031;48.542;13.232;2023-02-04T10:42:26;98912.16;;;13.14;40.50
62072;BME280;48031;48.542;13.232;2023-02-04T10:46:29;98922.50;;;13.05;37.35
62072;BME280;48031;48.542;13.232;2023-02-04T10:50:32;98923.13;;;12.59;40.35
62072;BME280;48031;48.542;13.232;2023-02-04T10:54:37;98923.97;;;13.38;38.12
62072;BME280;48031;48.542;13.232;2023-02-04T10:58:42;98920.94;;;14.74;35.18
62072;BME280;48031;48.542;13.232;2023-02-04T11:02:59;98928.34;;;13.39;37.88
62072;BME280;48031;48.542;13.232;2023-02-04T11:07:02;98920.16;;;12.24;38.49
62072;BME280;48031;48.542;13.232;2023-02-04T11:11:07;98934.41;;;11.77;40.06
62072;BME280;48031;48.542;13.232;2023-02-04T11:19:39;98934.19;;;12.21;38.23
62072;BME280;48031;48.542;13.232;2023-02-04T11:23:41;98931.13;;;12.36;37.50
62072;BME280;48031;48.542;13.232;2023-02-04T11:27:43;98923.69;;;13.27;36.45
62072;BME280;48031;48.542;13.232;2023-02-04T11:36:11;98922.00;;;16.58;30.09
62072;BME280;48031;48.542;13.232;2023-02-04T11:40:34;98920.22;;;17.39;31.37
62072;BME280;48031;48.542;13.232;2023-02-04T11:44:36;98922.91;;;17.07;30.41
62072;BME280;48031;48.542;13.232;2023-02-04T11:48:38;98926.88;;;16.56;29.16
62072;BME280;48031;48.542;13.232;2023-02-04T11:52:40;98915.44;;;16.20;31.79
62072;BME280;48031;48.542;13.232;2023-02-04T11:56:42;98898.09;;;19.14;26.53
62072;BME280;48031;48.542;13.232;2023-02-04T12:00:44;98896.59;;;19.68;26.14
62072;BME280;48031;48.542;13.232;2023-02-04T12:04:57;98904.50;;;18.20;25.77
62072;BME280;48031;48.542;13.232;2023-02-04T12:13:23;98905.47;;;18.46;27.87
62072;BME280;48031;48.542;13.232;2023-02-04T12:17:25;98906.97;;;17.58;27.85
62072;BME280;48031;48.542;13.232;2023-02-04T12:21:27;98911.88;;;18.14;26.03
62072;BME280;48031;48.542;13.232;2023-02-04T12:25:29;98893.81;;;20.14;23.58
62072;BME280;48031;48.542;13.232;2023-02-04T12:29:31;98918.41;;;18.92;25.60
62072;BME280;48031;48.542;13.232;2023-02-04T12:33:33;98908.03;;;22.19;20.13
62072;BME280;48031;48.542;13.232;2023-02-04T12:37:35;98914.13;;;21.82;22.14
62072;BME280;48031;48.542;13.232;2023-02-04T12:41:37;98912.91;;;23.88;20.47
62072;BME280;48031;48.542;13.232;2023-02-04T12:45:38;98907.88;;;24.82;16.38
62072;BME280;48031;48.542;13.232;2023-02-04T12:49:46;98918.66;;;19.93;24.62
62072;BME280;48031;48.542;13.232;2023-02-04T12:53:48;98912.56;;;24.09;16.47
62072;BME280;48031;48.542;13.232;2023-02-04T12:57:51;98913.38;;;24.41;17.25
62072;BME280;48031;48.542;13.232;2023-02-04T13:01:53;98919.41;;;22.17;18.21
62072;BME280;48031;48.542;13.232;2023-02-04T13:05:55;98918.16;;;23.71;18.42
62072;BME280;48031;48.542;13.232;2023-02-04T13:09:56;98911.72;;;23.57;18.71
62072;BME280;48031;48.542;13.232;2023-02-04T13:13:59;98913.34;;;23.58;16.96
62072;BME280;48031;48.542;13.232;2023-02-04T13:18:00;98916.94;;;23.77;17.03
62072;BME280;48031;48.542;13.232;2023-02-04T13:22:02;98913.34;;;23.58;19.76
62072;BME280;48031;48.542;13.232;2023-02-04T13:26:04;98915.34;;;26.22;15.64
62072;BME280;48031;48.542;13.232;2023-02-04T13:30:07;98914.88;;;25.62;16.68
62072;BME280;48031;48.542;13.232;2023-02-04T13:34:09;98918.31;;;26.03;13.43
62072;BME280;48031;48.542;13.232;2023-02-04T13:38:11;98921.72;;;27.63;13.02
62072;BME280;48031;48.542;13.232;2023-02-04T13:42:13;98928.66;;;24.71;14.68
62072;BME280;48031;48.542;13.232;2023-02-04T13:46:15;98939.84;;;26.65;14.58
62072;BME280;48031;48.542;13.232;2023-02-04T13:50:17;98934.41;;;26.29;13.74
62072;BME280;48031;48.542;13.232;2023-02-04T13:54:18;98942.56;;;19.47;19.22
62072;BME280;48031;48.542;13.232;2023-02-04T13:58:20;98944.19;;;15.56;25.30
62072;BME280;48031;48.542;13.232;2023-02-04T14:02:22;98942.81;;;20.88;20.03
62072;BME280;48031;48.542;13.232;2023-02-04T14:06:24;98932.75;;;24.60;16.58
62072;BME280;48031;48.542;13.232;2023-02-04T14:10:33;98952.66;;;17.96;22.24
62072;BME280;48031;48.542;13.232;2023-02-04T14:14:38;98957.59;;;16.36;24.81
62072;BME280;48031;48.542;13.232;2023-02-04T14:18:40;98956.13;;;22.57;17.86
62072;BME280;48031;48.542;13.232;2023-02-04T14:22:42;98966.31;;;20.65;19.75
62072;BME280;48031;48.542;13.232;2023-02-04T14:26:44;98972.66;;;23.14;17.63
62072;BME280;48031;48.542;13.232;2023-02-04T14:30:46;98990.41;;;17.78;25.24
62072;BME280;48031;48.542;13.232;2023-02-04T14:34:47;99006.75;;;16.59;23.33
62072;BME280;48031;48.542;13.232;2023-02-04T14:38:49;99005.84;;;13.19;30.54
62072;BME280;48031;48.542;13.232;2023-02-04T14:42:51;99001.19;;;13.80;28.11
62072;BME280;48031;48.542;13.232;2023-02-04T14:46:53;99010.56;;;12.51;31.83
62072;BME280;48031;48.542;13.232;2023-02-04T14:50:55;99009.69;;;12.32;32.34
62072;BME280;48031;48.542;13.232;2023-02-04T14:54:56;99012.63;;;12.74;31.02
62072;BME280;48031;48.542;13.232;2023-02-04T14:58:59;99017.16;;;11.56;34.09
62072;BME280;48031;48.542;13.232;2023-02-04T15:03:01;99012.31;;;11.26;36.28
62072;BME280;48031;48.542;13.232;2023-02-04T15:07:03;99016.63;;;11.79;34.27
62072;BME280;48031;48.542;13.232;2023-02-04T15:11:05;99022.66;;;11.05;33.99
62072;BME280;48031;48.542;13.232;2023-02-04T15:15:07;99029.00;;;10.86;33.67
62072;BME280;48031;48.542;13.232;2023-02-04T15:19:09;99031.59;;;10.15;35.41
62072;BME280;48031;48.542;13.232;2023-02-04T15:23:11;99012.53;;;15.39;26.76
62072;BME280;48031;48.542;13.232;2023-02-04T15:27:13;99014.34;;;18.42;22.61
62072;BME280;48031;48.542;13.232;2023-02-04T15:31:15;99018.41;;;17.54;23.41
62072;BME280;48031;48.542;13.232;2023-02-04T15:35:17;99026.75;;;16.77;25.85
62072;BME280;48031;48.542;13.232;2023-02-04T15:39:20;99025.69;;;18.18;22.61
62072;BME280;48031;48.542;13.232;2023-02-04T15:43:21;99044.25;;;12.57;32.10
62072;BME280;48031;48.542;13.232;2023-02-04T15:47:23;99055.88;;;12.45;31.30
62072;BME280;48031;48.542;13.232;2023-02-04T15:51:25;99066.84;;;9.14;37.71
62072;BME280;48031;48.542;13.232;2023-02-04T15:55:28;99074.47;;;8.57;38.78
62072;BME280;48031;48.542;13.232;2023-02-04T15:59:29;99074.72;;;8.34;39.74
62072;BME280;48031;48.542;13.232;2023-02-04T16:03:31;99091.44;;;8.44;39.02
62072;BME280;48031;48.542;13.232;2023-02-04T16:07:33;99090.81;;;7.78;39.18
62072;BME280;48031;48.542;13.232;2023-02-04T16:11:35;99095.63;;;7.62;39.89
62072;BME280;48031;48.542;13.232;2023-02-04T16:15:39;99110.38;;;7.23;43.59
62072;BME280;48031;48.542;13.232;2023-02-04T16:19:41;99109.63;;;7.15;43.20
62072;BME280;48031;48.542;13.232;2023-02-04T16:23:43;99119.03;;;6.75;42.91
62072;BME280;48031;48.542;13.232;2023-02-04T16:27:44;99119.22;;;6.88;42.68
62072;BME280;48031;48.542;13.232;2023-02-04T16:31:46;99112.03;;;7.24;41.26
62072;BME280;48031;48.542;13.232;2023-02-04T16:36:29;99111.22;;;7.81;40.64
62072;BME280;48031;48.542;13.232;2023-02-04T16:40:24;99118.03;;;7.56;39.92
62072;BME280;48031;48.542;13.232;2023-02-04T16:44:25;99135.38;;;7.46;43.56
62072;BME280;48031;48.542;13.232;2023-02-04T16:48:27;99144.19;;;7.55;42.21
62072;BME280;48031;48.542;13.232;2023-02-04T16:52:29;99141.69;;;7.53;42.04
62072;BME280;48031;48.542;13.232;2023-02-04T16:56:32;99142.69;;;7.67;42.40
62072;BME280;48031;48.542;13.232;2023-02-04T17:00:36;99155.63;;;7.72;42.88
62072;BME280;48031;48.542;13.232;2023-02-04T17:04:42;99158.50;;;7.70;41.63
62072;BME280;48031;48.542;13.232;2023-02-04T17:08:44;99156.56;;;8.98;39.27
62072;BME280;48031;48.542;13.232;2023-02-04T17:12:45;99163.09;;;9.10;38.71
62072;BME280;48031;48.542;13.232;2023-02-04T17:16:48;99167.00;;;9.42;37.57
62072;BME280;48031;48.542;13.232;2023-02-04T17:20:52;99167.44;;;9.05;36.51
62072;BME280;48031;48.542;13.232;2023-02-04T17:24:53;99181.63;;;8.79;38.14
62072;BME280;48031;48.542;13.232;2023-02-04T17:28:55;99187.75;;;7.16;40.14
62072;BME280;48031;48.542;13.232;2023-02-04T17:32:57;99188.66;;;6.94;42.52
62072;BME280;48031;48.542;13.232;2023-02-04T17:36:59;99188.38;;;6.74;42.37
62072;BME280;48031;48.542;13.232;2023-02-04T17:41:00;99178.22;;;6.76;41.99
62072;BME280;48031;48.542;13.232;2023-02-04T17:45:03;99180.66;;;6.34;43.15
62072;BME280;48031;48.542;13.232;2023-02-04T17:49:05;99181.66;;;6.10;44.89
62072;BME280;48031;48.542;13.232;2023-02-04T17:53:08;99177.88;;;6.42;44.51
62072;BME280;48031;48.542;13.232;2023-02-04T17:57:16;99187.72;;;6.12;44.74
62072;BME280;48031;48.542;13.232;2023-02-04T18:01:19;99180.06;;;6.01;45.71
62072;BME280;48031;48.542;13.232;2023-02-04T18:05:25;99190.47;;;6.04;44.07
62072;BME280;48031;48.542;13.232;2023-02-04T18:09:27;99187.88;;;6.71;41.21
62072;BME280;48031;48.542;13.232;2023-02-04T18:13:31;99195.91;;;7.37;41.80
62072;BME280;48031;48.542;13.232;2023-02-04T18:17:33;99192.84;;;7.55;41.26
62072;BME280;48031;48.542;13.232;2023-02-04T18:21:35;99194.81;;;7.46;42.11
62072;BME280;48031;48.542;13.232;2023-02-04T18:25:37;99199.63;;;6.92;44.66
62072;BME280;48031;48.542;13.232;2023-02-04T18:29:39;99192.38;;;6.93;44.69
62072;BME280;48031;48.542;13.232;2023-02-04T18:33:42;99204.75;;;6.87;44.75
62072;BME280;48031;48.542;13.232;2023-02-04T18:37:47;99197.69;;;7.16;43.85
62072;BME280;48031;48.542;13.232;2023-02-04T18:41:50;99193.06;;;7.24;42.69
62072;BME280;48031;48.542;13.232;2023-02-04T18:45:52;99198.25;;;7.11;41.02
62072;BME280;48031;48.542;13.232;2023-02-04T18:49:55;99195.09;;;7.37;39.47
62072;BME280;48031;48.542;13.232;2023-02-04T18:54:00;99204.50;;;7.26;42.30
62072;BME280;48031;48.542;13.232;2023-02-04T18:58:35;99205.03;;;7.66;43.21
62072;BME280;48031;48.542;13.232;2023-02-04T19:02:59;99208.84;;;7.42;45.13
62072;BME280;48031;48.542;13.232;2023-02-04T19:07:11;99210.47;;;7.22;44.79
62072;BME280;48031;48.542;13.232;2023-02-04T19:15:37;99211.13;;;6.57;46.90
62072;BME280;48031;48.542;13.232;2023-02-04T19:24:20;99193.38;;;6.62;43.88
62072;BME280;48031;48.542;13.232;2023-02-04T19:28:27;99205.94;;;6.10;46.31
62072;BME280;48031;48.542;13.232;2023-02-04T19:32:43;99203.66;;;6.44;46.25
62072;BME280;48031;48.542;13.232;2023-02-04T19:36:46;99196.81;;;6.11;44.69
62072;BME280;48031;48.542;13.232;2023-02-04T19:40:49;99196.41;;;6.22;45.66
62072;BME280;48031;48.542;13.232;2023-02-04T19:44:53;99200.19;;;6.13;45.63
62072;BME280;48031;48.542;13.232;2023-02-04T19:48:55;99201.47;;;5.63;46.44
62072;BME280;48031;48.542;13.232;2023-02-04T19:53:02;99202.81;;;5.98;47.60
62072;BME280;48031;48.542;13.232;2023-02-04T19:57:26;99202.34;;;6.17;46.84
62072;BME280;48031;48.542;13.232;2023-02-04T20:01:30;99207.38;;;5.59;47.99
62072;BME280;48031;48.542;13.232;2023-02-04T20:05:33;99205.34;;;5.61;45.85
62072;BME280;48031;48.542;13.232;2023-02-04T20:09:35;99206.34;;;5.29;46.51
62072;BME280;48031;48.542;13.232;2023-02-04T20:13:37;99216.34;;;5.12;47.50
62072;BME280;48031;48.542;13.232;2023-02-04T20:17:42;99213.59;;;5.28;46.76
62072;BME280;48031;48.542;13.232;2023-02-04T20:26:17;99220.25;;;4.69;47.63
62072;BME280;48031;48.542;13.232;2023-02-04T20:30:25;99219.34;;;5.56;48.12
62072;BME280;48031;48.542;13.232;2023-02-04T20:34:27;99227.72;;;5.22;46.35
62072;BME280;48031;48.542;13.232;2023-02-04T20:38:29;99227.75;;;5.14;47.25
62072;BME280;48031;48.542;13.232;2023-02-04T20:42:33;99234.81;;;5.07;47.46
62072;BME280;48031;48.542;13.232;2023-02-04T20:46:35;99233.84;;;4.92;46.57
62072;BME280;48031;48.542;13.232;2023-02-04T20:50:40;99242.34;;;5.28;45.89
62072;BME280;48031;48.542;13.232;2023-02-04T20:54:42;99249.66;;;4.95;45.18
62072;BME280;48031;48.542;13.232;2023-02-04T20:58:44;99248.94;;;5.09;46.81
62072;BME280;48031;48.542;13.232;2023-02-04T21:02:46;99247.00;;;4.79;47.22
62072;BME280;48031;48.542;13.232;2023-02-04T21:06:50;99244.78;;;5.07;48.17
62072;BME280;48031;48.542;13.232;2023-02-04T21:10:52;99254.41;;;4.28;50.09
62072;BME280;48031;48.542;13.232;2023-02-04T21:14:54;99249.69;;;4.38;50.11
62072;BME280;48031;48.542;13.232;2023-02-04T21:18:56;99262.13;;;4.47;50.46
62072;BME280;48031;48.542;13.232;2023-02-04T21:22:58;99265.28;;;4.18;52.40
62072;BME280;48031;48.542;13.232;2023-02-04T21:27:00;99259.41;;;4.15;53.37
62072;BME280;48031;48.542;13.232;2023-02-04T21:31:02;99260.44;;;4.22;52.29
62072;BME280;48031;48.542;13.232;2023-02-04T21:35:05;99256.75;;;4.31;51.61
62072;BME280;48031;48.542;13.232;2023-02-04T21:39:06;99246.81;;;4.15;51.99
62072;BME280;48031;48.542;13.232;2023-02-04T21:43:08;99264.16;;;2.95;53.13
62072;BME280;48031;48.542;13.232;2023-02-04T21:47:10;99255.16;;;3.96;52.51
62072;BME280;48031;48.542;13.232;2023-02-04T21:51:13;99258.97;;;3.02;53.09